sensor_id;sensor_type;location;lat;lon;timestamp;pressure;altitude;pressure_sealevel;temperature;humidity
73600;BME280;61877;48.246;9.220;2022-08-20T00:01:07;94181.44;;;15.68;92.35
73600;BME280;61877;48.246;9.220;2022-08-20T00:03:35;94182.63;;;15.71;91.33
73600;BME280;61877;48.246;9.220;2022-08-20T00:06:05;94171.06;;;15.74;91.19
73600;BME280;61877;48.246;9.220;2022-08-20T00:08:31;94167.94;;;15.68;92.34
73600;BME280;61877;48.246;9.220;2022-08-20T00:11:00;94169.66;;;15.54;93.24
73600;BME280;61877;48.246;9.220;2022-08-20T00:13:30;94173.38;;;15.42;93.70
73600;BME280;61877;48.246;9.220;2022-08-20T00:15:56;94174.00;;;15.35;93.67
73600;BME280;61877;48.246;9.220;2022-08-20T00:18:23;94179.22;;;15.21;94.54
73600;BME280;61877;48.246;9.220;2022-08-20T00:20:50;94178.31;;;15.14;94.65
73600;BME280;61877;48.246;9.220;2022-08-20T00:23:18;94182.78;;;15.03;94.90
73600;BME280;61877;48.246;9.220;2022-08-20T00:25:44;94187.59;;;14.90;95.39
73600;BME280;61877;48.246;9.220;2022-08-20T00:28:10;94189.28;;;14.98;94.94
73600;BME280;61877;48.246;9.220;2022-08-20T00:30:36;94193.75;;;14.91;95.57
73600;BME280;61877;48.246;9.220;2022-08-20T00:33:05;94197.91;;;14.85;95.51
73600;BME280;61877;48.246;9.220;2022-08-20T00:35:32;94199.00;;;14.80;95.60
73600;BME280;61877;48.246;9.220;2022-08-20T00:37:58;94200.03;;;14.72;96.27
73600;BME280;61877;48.246;9.220;2022-08-20T00:40:33;94200.72;;;14.69;96.12
73600;BME280;61877;48.246;9.220;2022-08-20T00:43:00;94205.00;;;14.70;96.21
73600;BME280;61877;48.246;9.220;2022-08-20T00:45:29;94195.69;;;14.68;95.95
73600;BME280;61877;48.246;9.220;2022-08-20T00:47:55;94202.31;;;14.70;95.75
73600;BME280;61877;48.246;9.220;2022-08-20T00:50:37;94194.88;;;14.64;95.99
73600;BME280;61877;48.246;9.220;2022-08-20T00:53:04;94202.03;;;14.56;96.05
73600;BME280;61877;48.246;9.220;2022-08-20T00:55:32;94201.69;;;14.58;96.36
73600;BME280;61877;48.246;9.220;2022-08-20T00:58:00;94208.53;;;14.52;96.46
73600;BME280;61877;48.246;9.220;2022-08-20T01:00:29;94201.09;;;14.68;95.10
73600;BME280;61877;48.246;9.220;2022-08-20T01:02:58;94197.56;;;14.64;95.92
73600;BME280;61877;48.246;9.220;2022-08-20T01:05:23;94197.84;;;14.59;95.23
73600;BME280;61877;48.246;9.220;2022-08-20T01:07:49;94200.34;;;14.48;95.30
73600;BME280;61877;48.246;9.220;2022-08-20T01:10:18;94200.28;;;14.45;95.74
73600;BME280;61877;48.246;9.220;2022-08-20T01:12:47;94201.31;;;14.37;95.69
73600;BME280;61877;48.246;9.220;2022-08-20T01:15:19;94210.94;;;14.38;95.70
73600;BME280;61877;48.246;9.220;2022-08-20T01:17:50;94217.50;;;14.37;94.44
73600;BME280;61877;48.246;9.220;2022-08-20T01:20:19;94223.63;;;14.34;95.76
73600;BME280;61877;48.246;9.220;2022-08-20T01:22:52;94216.06;;;14.23;95.64
73600;BME280;61877;48.246;9.220;2022-08-20T01:25:27;94220.53;;;14.16;95.15
73600;BME280;61877;48.246;9.220;2022-08-20T01:27:56;94229.34;;;14.13;95.83
73600;BME280;61877;48.246;9.220;2022-08-20T01:30:25;94217.34;;;14.10;95.76
73600;BME280;61877;48.246;9.220;2022-08-20T01:32:51;94216.63;;;14.13;95.80
73600;BME280;61877;48.246;9.220;2022-08-20T01:35:19;94207.81;;;14.16;95.39
73600;BME280;61877;48.246;9.220;2022-08-20T01:37:44;94215.50;;;14.14;95.77
73600;BME280;61877;48.246;9.220;2022-08-20T01:40:13;94221.38;;;14.20;95.55
73600;BME280;61877;48.246;9.220;2022-08-20T01:42:43;94220.97;;;14.18;95.60
73600;BME280;61877;48.246;9.220;2022-08-20T01:45:12;94220.97;;;14.18;94.90
73600;BME280;61877;48.246;9.220;2022-08-20T01:47:37;94220.13;;;14.14;95.74
73600;BME280;61877;48.246;9.220;2022-08-20T01:50:07;94219.63;;;14.08;95.31
73600;BME280;61877;48.246;9.220;2022-08-20T01:52:38;94210.44;;;14.13;95.09
73600;BME280;61877;48.246;9.220;2022-08-20T01:55:07;94212.16;;;14.02;95.04
73600;BME280;61877;48.246;9.220;2022-08-20T01:57:34;94217.50;;;13.98;95.58
73600;BME280;61877;48.246;9.220;2022-08-20T02:00:00;94223.16;;;13.93;95.13
73600;BME280;61877;48.246;9.220;2022-08-20T02:02:27;94227.28;;;13.87;96.14
73600;BME280;61877;48.246;9.220;2022-08-20T02:04:53;94224.16;;;13.85;95.66
73600;BME280;61877;48.246;9.220;2022-08-20T02:07:21;94229.91;;;13.84;95.63
73600;BME280;61877;48.246;9.220;2022-08-20T02:09:47;94232.44;;;13.77;95.74
73600;BME280;61877;48.246;9.220;2022-08-20T02:12:13;94229.22;;;13.71;95.92
73600;BME280;61877;48.246;9.220;2022-08-20T02:14:40;94222.28;;;13.70;95.90
73600;BME280;61877;48.246;9.220;2022-08-20T02:17:05;94230.19;;;13.79;96.15
73600;BME280;61877;48.246;9.220;2022-08-20T02:19:35;94231.59;;;13.73;95.98
73600;BME280;61877;48.246;9.220;2022-08-20T02:22:08;94228.19;;;13.76;96.28
73600;BME280;61877;48.246;9.220;2022-08-20T02:24:35;94224.78;;;13.79;95.51
73600;BME280;61877;48.246;9.220;2022-08-20T02:27:00;94225.22;;;13.81;96.10
73600;BME280;61877;48.246;9.220;2022-08-20T02:29:26;94224.78;;;13.79;96.13
73600;BME280;61877;48.246;9.220;2022-08-20T02:31:51;94224.78;;;13.79;95.45
73600;BME280;61877;48.246;9.220;2022-08-20T02:34:16;94226.25;;;13.76;95.71
73600;BME280;61877;48.246;9.220;2022-08-20T02:36:43;94225.50;;;13.76;96.30
73600;BME280;61877;48.246;9.220;2022-08-20T02:39:11;94231.66;;;13.76;96.12
73600;BME280;61877;48.246;9.220;2022-08-20T02:41:37;94225.84;;;13.74;96.36
73600;BME280;61877;48.246;9.220;2022-08-20T02:44:04;94226.97;;;13.73;96.59
73600;BME280;61877;48.246;9.220;2022-08-20T02:46:30;94219.31;;;13.75;96.40
73600;BME280;61877;48.246;9.220;2022-08-20T02:48:56;94225.72;;;13.86;95.47
73600;BME280;61877;48.246;9.220;2022-08-20T02:51:22;94231.72;;;13.80;95.61
73600;BME280;61877;48.246;9.220;2022-08-20T02:53:49;94227.75;;;13.74;95.84
73600;BME280;61877;48.246;9.220;2022-08-20T02:56:15;94229.19;;;13.68;96.02
73600;BME280;61877;48.246;9.220;2022-08-20T02:58:41;94228.22;;;13.60;96.45
73600;BME280;61877;48.246;9.220;2022-08-20T03:01:08;94230.50;;;13.58;96.38
73600;BME280;61877;48.246;9.220;2022-08-20T03:03:34;94226.97;;;13.54;96.57
73600;BME280;61877;48.246;9.220;2022-08-20T03:06:00;94222.28;;;13.51;95.98
73600;BME280;61877;48.246;9.220;2022-08-20T03:08:26;94215.66;;;13.49;96.37
73600;BME280;61877;48.246;9.220;2022-08-20T03:10:54;94211.41;;;13.48;96.40
73600;BME280;61877;48.246;9.220;2022-08-20T03:13:20;94207.22;;;13.50;96.34
73600;BME280;61877;48.246;9.220;2022-08-20T03:15:48;94214.03;;;13.44;96.00
73600;BME280;61877;48.246;9.220;2022-08-20T03:18:15;94213.94;;;13.41;96.10
73600;BME280;61877;48.246;9.220;2022-08-20T03:20:42;94209.34;;;13.41;96.33
73600;BME280;61877;48.246;9.220;2022-08-20T03:23:07;94208.47;;;13.37;96.00
73600;BME280;61877;48.246;9.220;2022-08-20T03:25:33;94196.81;;;13.33;96.30
73600;BME280;61877;48.246;9.220;2022-08-20T03:28:00;94207.53;;;13.30;96.07
73600;BME280;61877;48.246;9.220;2022-08-20T03:30:26;94202.06;;;13.26;96.29
73600;BME280;61877;48.246;9.220;2022-08-20T03:32:52;94205.75;;;13.18;96.19
73600;BME280;61877;48.246;9.220;2022-08-20T03:35:19;94205.75;;;13.18;96.73
73600;BME280;61877;48.246;9.220;2022-08-20T03:37:46;94211.72;;;13.12;96.38
73600;BME280;61877;48.246;9.220;2022-08-20T03:40:15;94207.81;;;13.09;96.50
73600;BME280;61877;48.246;9.220;2022-08-20T03:42:41;94219.34;;;13.25;96.08
73600;BME280;61877;48.246;9.220;2022-08-20T03:45:10;94221.56;;;13.20;96.23
73600;BME280;61877;48.246;9.220;2022-08-20T03:47:37;94226.84;;;13.16;96.30
73600;BME280;61877;48.246;9.220;2022-08-20T03:50:04;94223.28;;;13.12;96.64
73600;BME280;61877;48.246;9.220;2022-08-20T03:52:30;94226.31;;;13.11;96.18
73600;BME280;61877;48.246;9.220;2022-08-20T03:54:56;94226.25;;;13.07;96.87
73600;BME280;61877;48.246;9.220;2022-08-20T03:57:22;94222.44;;;13.08;96.42
73600;BME280;61877;48.246;9.220;2022-08-20T03:59:47;94218.50;;;13.06;96.79
73600;BME280;61877;48.246;9.220;2022-08-20T04:02:14;94218.59;;;13.09;97.05
73600;BME280;61877;48.246;9.220;2022-08-20T04:04:40;94219.38;;;13.10;97.19
73600;BME280;61877;48.246;9.220;2022-08-20T04:07:10;94216.25;;;13.08;97.07
73600;BME280;61877;48.246;9.220;2022-08-20T04:09:36;94222.44;;;13.08;97.21
73600;BME280;61877;48.246;9.220;2022-08-20T04:12:02;94215.81;;;13.06;97.00
73600;BME280;61877;48.246;9.220;2022-08-20T04:14:27;94215.97;;;12.97;96.68
73600;BME280;61877;48.246;9.220;2022-08-20T04:16:53;94216.66;;;12.94;96.69
73600;BME280;61877;48.246;9.220;2022-08-20T04:19:20;94224.31;;;12.92;96.59
73600;BME280;61877;48.246;9.220;2022-08-20T04:21:45;94222.50;;;12.96;96.73
73600;BME280;61877;48.246;9.220;2022-08-20T04:24:10;94225.19;;;12.96;97.14
73600;BME280;61877;48.246;9.220;2022-08-20T04:26:36;94226.94;;;13.04;96.10
73600;BME280;61877;48.246;9.220;2022-08-20T04:29:02;94230.44;;;13.05;96.87
73600;BME280;61877;48.246;9.220;2022-08-20T04:31:28;94227.28;;;13.03;96.99
73600;BME280;61877;48.246;9.220;2022-08-20T04:33:53;94221.00;;;12.98;96.96
73600;BME280;61877;48.246;9.220;2022-08-20T04:36:20;94229.78;;;12.95;96.73
73600;BME280;61877;48.246;9.220;2022-08-20T04:38:45;94228.56;;;12.93;95.99
73600;BME280;61877;48.246;9.220;2022-08-20T04:41:10;94238.13;;;12.90;96.19
73600;BME280;61877;48.246;9.220;2022-08-20T04:43:36;94237.69;;;12.88;96.33
73600;BME280;61877;48.246;9.220;2022-08-20T04:46:04;94234.63;;;12.90;96.16
73600;BME280;61877;48.246;9.220;2022-08-20T04:48:31;94235.44;;;12.90;96.20
73600;BME280;61877;48.246;9.220;2022-08-20T04:50:57;94236.56;;;12.89;96.27
73600;BME280;61877;48.246;9.220;2022-08-20T04:53:26;94245.75;;;12.88;96.00
73600;BME280;61877;48.246;9.220;2022-08-20T04:55:54;94248.19;;;12.93;96.13
73600;BME280;61877;48.246;9.220;2022-08-20T04:58:22;94245.94;;;12.95;96.03
73600;BME280;61877;48.246;9.220;2022-08-20T05:00:50;94242.19;;;13.00;96.32
73600;BME280;61877;48.246;9.220;2022-08-20T05:03:16;94257.72;;;13.03;96.01
73600;BME280;61877;48.246;9.220;2022-08-20T05:05:42;94253.97;;;13.08;95.90
73600;BME280;61877;48.246;9.220;2022-08-20T05:08:08;94259.44;;;13.11;95.25
73600;BME280;61877;48.246;9.220;2022-08-20T05:10:35;94257.19;;;13.13;95.26
73600;BME280;61877;48.246;9.220;2022-08-20T05:13:00;94258.81;;;13.18;95.28
73600;BME280;61877;48.246;9.220;2022-08-20T05:15:26;94269.44;;;13.26;95.47
73600;BME280;61877;48.246;9.220;2022-08-20T05:17:54;94261.34;;;13.26;94.84
73600;BME280;61877;48.246;9.220;2022-08-20T05:20:20;94267.59;;;13.30;95.07
73600;BME280;61877;48.246;9.220;2022-08-20T05:22:46;94265.75;;;13.34;94.32
73600;BME280;61877;48.246;9.220;2022-08-20T05:25:12;94267.50;;;13.42;94.19
73600;BME280;61877;48.246;9.220;2022-08-20T05:27:39;94273.41;;;13.48;93.69
73600;BME280;61877;48.246;9.220;2022-08-20T05:30:07;94270.53;;;13.56;94.26
73600;BME280;61877;48.246;9.220;2022-08-20T05:32:34;94268.47;;;13.69;93.29
73600;BME280;61877;48.246;9.220;2022-08-20T05:35:00;94272.06;;;13.92;93.15
73600;BME280;61877;48.246;9.220;2022-08-20T05:37:26;94272.28;;;14.21;92.50
73600;BME280;61877;48.246;9.220;2022-08-20T05:39:51;94277.44;;;14.46;91.55
73600;BME280;61877;48.246;9.220;2022-08-20T05:42:16;94272.97;;;14.76;90.71
73600;BME280;61877;48.246;9.220;2022-08-20T05:44:43;94277.44;;;14.87;89.97
73600;BME280;61877;48.246;9.220;2022-08-20T05:47:09;94277.38;;;15.29;89.35
73600;BME280;61877;48.246;9.220;2022-08-20T05:49:34;94280.09;;;15.29;88.50
73600;BME280;61877;48.246;9.220;2022-08-20T05:52:02;94277.84;;;15.54;87.19
73600;BME280;61877;48.246;9.220;2022-08-20T05:54:27;94272.78;;;15.78;87.36
73600;BME280;61877;48.246;9.220;2022-08-20T05:56:53;94270.91;;;16.12;87.12
73600;BME280;61877;48.246;9.220;2022-08-20T05:59:18;94270.81;;;16.34;86.94
73600;BME280;61877;48.246;9.220;2022-08-20T06:01:45;94274.88;;;16.47;85.82
73600;BME280;61877;48.246;9.220;2022-08-20T06:04:10;94267.41;;;16.70;86.12
73600;BME280;61877;48.246;9.220;2022-08-20T06:06:36;94265.53;;;16.74;86.36
73600;BME280;61877;48.246;9.220;2022-08-20T06:09:02;94262.50;;;16.83;86.51
73600;BME280;61877;48.246;9.220;2022-08-20T06:11:28;94272.28;;;16.95;86.77
73600;BME280;61877;48.246;9.220;2022-08-20T06:13:53;94271.91;;;16.93;86.59
73600;BME280;61877;48.246;9.220;2022-08-20T06:16:18;94266.38;;;16.82;87.31
73600;BME280;61877;48.246;9.220;2022-08-20T06:18:46;94270.16;;;16.74;88.29
73600;BME280;61877;48.246;9.220;2022-08-20T06:21:14;94264.59;;;16.63;88.61
73600;BME280;61877;48.246;9.220;2022-08-20T06:23:40;94274.50;;;16.49;89.18
73600;BME280;61877;48.246;9.220;2022-08-20T06:26:05;94273.25;;;16.43;89.92
73600;BME280;61877;48.246;9.220;2022-08-20T06:28:30;94270.28;;;16.51;90.63
73600;BME280;61877;48.246;9.220;2022-08-20T06:30:56;94271.44;;;16.50;89.61
73600;BME280;61877;48.246;9.220;2022-08-20T06:33:21;94270.69;;;16.53;89.49
73600;BME280;61877;48.246;9.220;2022-08-20T06:35:48;94271.19;;;16.62;89.41
73600;BME280;61877;48.246;9.220;2022-08-20T06:38:13;94269.31;;;16.70;89.21
73600;BME280;61877;48.246;9.220;2022-08-20T06:40:39;94275.69;;;16.85;89.03
73600;BME280;61877;48.246;9.220;2022-08-20T06:43:04;94278.88;;;16.94;89.09
73600;BME280;61877;48.246;9.220;2022-08-20T06:45:31;94285.94;;;17.05;88.44
73600;BME280;61877;48.246;9.220;2022-08-20T06:47:59;94279.50;;;17.20;88.77
73600;BME280;61877;48.246;9.220;2022-08-20T06:50:28;94282.72;;;17.33;87.82
73600;BME280;61877;48.246;9.220;2022-08-20T06:52:56;94278.44;;;17.32;86.94
73600;BME280;61877;48.246;9.220;2022-08-20T06:55:22;94275.81;;;17.39;86.75
73600;BME280;61877;48.246;9.220;2022-08-20T06:57:55;94270.78;;;17.41;87.23
73600;BME280;61877;48.246;9.220;2022-08-20T07:00:21;94275.53;;;17.47;88.47
73600;BME280;61877;48.246;9.220;2022-08-20T07:02:46;94278.94;;;17.41;88.35
73600;BME280;61877;48.246;9.220;2022-08-20T07:05:12;94274.75;;;17.47;87.47
73600;BME280;61877;48.246;9.220;2022-08-20T07:07:37;94281.72;;;17.48;88.58
73600;BME280;61877;48.246;9.220;2022-08-20T07:10:05;94279.00;;;17.48;88.84
73600;BME280;61877;48.246;9.220;2022-08-20T07:12:32;94290.56;;;17.45;89.39
73600;BME280;61877;48.246;9.220;2022-08-20T07:14:57;94288.19;;;17.40;89.94
73600;BME280;61877;48.246;9.220;2022-08-20T07:17:22;94293.66;;;17.43;89.39
73600;BME280;61877;48.246;9.220;2022-08-20T07:19:48;94290.25;;;17.50;89.24
73600;BME280;61877;48.246;9.220;2022-08-20T07:22:13;94289.94;;;17.58;89.07
73600;BME280;61877;48.246;9.220;2022-08-20T07:24:39;94291.16;;;17.68;89.03
73600;BME280;61877;48.246;9.220;2022-08-20T07:27:05;94292.81;;;17.79;88.87
73600;BME280;61877;48.246;9.220;2022-08-20T07:29:31;94300.25;;;17.89;88.20
73600;BME280;61877;48.246;9.220;2022-08-20T07:31:56;94299.88;;;17.91;88.48
73600;BME280;61877;48.246;9.220;2022-08-20T07:34:22;94299.50;;;17.96;87.93
73600;BME280;61877;48.246;9.220;2022-08-20T07:36:47;94304.56;;;17.94;88.26
73600;BME280;61877;48.246;9.220;2022-08-20T07:39:13;94303.00;;;17.96;88.96
73600;BME280;61877;48.246;9.220;2022-08-20T07:41:38;94303.44;;;18.02;88.55
73600;BME280;61877;48.246;9.220;2022-08-20T07:44:05;94302.28;;;18.03;88.39
73600;BME280;61877;48.246;9.220;2022-08-20T07:46:31;94303.44;;;18.02;88.09
73600;BME280;61877;48.246;9.220;2022-08-20T07:48:57;94297.97;;;17.95;88.68
73600;BME280;61877;48.246;9.220;2022-08-20T07:51:25;94297.59;;;18.00;89.17
73600;BME280;61877;48.246;9.220;2022-08-20T07:53:51;94300.75;;;18.06;88.53
73600;BME280;61877;48.246;9.220;2022-08-20T07:56:18;94298.91;;;18.20;87.20
73600;BME280;61877;48.246;9.220;2022-08-20T07:58:47;94292.78;;;18.34;86.57
73600;BME280;61877;48.246;9.220;2022-08-20T08:01:14;94299.38;;;18.36;87.01
73600;BME280;61877;48.246;9.220;2022-08-20T08:03:39;94294.38;;;18.42;86.83
73600;BME280;61877;48.246;9.220;2022-08-20T08:06:05;94297.13;;;18.49;86.10
73600;BME280;61877;48.246;9.220;2022-08-20T08:08:31;94296.03;;;18.71;86.00
73600;BME280;61877;48.246;9.220;2022-08-20T08:11:00;94300.72;;;18.67;85.87
73600;BME280;61877;48.246;9.220;2022-08-20T08:13:27;94303.06;;;18.82;85.61
73600;BME280;61877;48.246;9.220;2022-08-20T08:16:00;94302.31;;;18.85;85.98
73600;BME280;61877;48.246;9.220;2022-08-20T08:18:38;94299.22;;;18.83;84.92
73600;BME280;61877;48.246;9.220;2022-08-20T08:21:06;94298.06;;;18.91;84.42
73600;BME280;61877;48.246;9.220;2022-08-20T08:23:31;94302.75;;;18.98;84.16
73600;BME280;61877;48.246;9.220;2022-08-20T08:25:57;94292.66;;;19.05;83.80
73600;BME280;61877;48.246;9.220;2022-08-20T08:28:22;94302.00;;;19.08;83.43
73600;BME280;61877;48.246;9.220;2022-08-20T08:30:48;94303.97;;;19.18;84.38
73600;BME280;61877;48.246;9.220;2022-08-20T08:33:18;94298.53;;;19.28;84.19
73600;BME280;61877;48.246;9.220;2022-08-20T08:35:45;94298.59;;;19.43;82.15
73600;BME280;61877;48.246;9.220;2022-08-20T08:38:11;94299.34;;;19.54;80.91
73600;BME280;61877;48.246;9.220;2022-08-20T08:40:36;94305.97;;;19.81;80.22
73600;BME280;61877;48.246;9.220;2022-08-20T08:43:02;94297.00;;;20.08;79.09
73600;BME280;61877;48.246;9.220;2022-08-20T08:45:33;94298.50;;;20.48;79.21
73600;BME280;61877;48.246;9.220;2022-08-20T08:47:59;94303.13;;;20.58;78.53
73600;BME280;61877;48.246;9.220;2022-08-20T08:50:28;94308.47;;;20.83;77.12
73600;BME280;61877;48.246;9.220;2022-08-20T08:52:58;94306.91;;;20.92;77.63
73600;BME280;61877;48.246;9.220;2022-08-20T08:55:26;94303.72;;;21.04;75.80
73600;BME280;61877;48.246;9.220;2022-08-20T08:57:54;94304.28;;;21.47;73.52
73600;BME280;61877;48.246;9.220;2022-08-20T09:00:20;94303.00;;;21.62;73.30
73600;BME280;61877;48.246;9.220;2022-08-20T09:02:55;94294.41;;;21.63;71.75
73600;BME280;61877;48.246;9.220;2022-08-20T09:05:22;94295.91;;;21.71;71.99
73600;BME280;61877;48.246;9.220;2022-08-20T09:07:50;94307.66;;;22.13;69.17
73600;BME280;61877;48.246;9.220;2022-08-20T09:10:18;94300.63;;;22.15;68.27
73600;BME280;61877;48.246;9.220;2022-08-20T09:12:46;94292.53;;;22.42;69.91
73600;BME280;61877;48.246;9.220;2022-08-20T09:15:11;94293.31;;;22.42;70.25
73600;BME280;61877;48.246;9.220;2022-08-20T09:17:37;94287.69;;;23.20;68.03
73600;BME280;61877;48.246;9.220;2022-08-20T09:20:03;94287.81;;;23.13;66.71
73600;BME280;61877;48.246;9.220;2022-08-20T09:22:29;94284.78;;;23.04;67.00
73600;BME280;61877;48.246;9.220;2022-08-20T09:24:54;94291.97;;;22.61;65.60
73600;BME280;61877;48.246;9.220;2022-08-20T09:27:21;94293.00;;;22.37;67.18
73600;BME280;61877;48.246;9.220;2022-08-20T09:29:46;94286.84;;;22.26;68.34
73600;BME280;61877;48.246;9.220;2022-08-20T09:32:15;94281.28;;;21.96;65.05
73600;BME280;61877;48.246;9.220;2022-08-20T09:34:43;94290.41;;;21.79;66.60
73600;BME280;61877;48.246;9.220;2022-08-20T09:37:09;94280.75;;;21.63;68.73
73600;BME280;61877;48.246;9.220;2022-08-20T09:39:35;94282.34;;;21.57;66.88
73600;BME280;61877;48.246;9.220;2022-08-20T09:42:08;94283.19;;;21.47;70.58
73600;BME280;61877;48.246;9.220;2022-08-20T09:44:35;94284.56;;;21.80;69.36
73600;BME280;61877;48.246;9.220;2022-08-20T09:47:00;94286.19;;;22.15;67.52
73600;BME280;61877;48.246;9.220;2022-08-20T09:49:26;94287.44;;;23.11;61.99
73600;BME280;61877;48.246;9.220;2022-08-20T09:51:51;94288.72;;;24.09;57.31
73600;BME280;61877;48.246;9.220;2022-08-20T09:54:17;94288.59;;;24.59;53.58
73600;BME280;61877;48.246;9.220;2022-08-20T09:56:43;94284.41;;;24.32;54.17
73600;BME280;61877;48.246;9.220;2022-08-20T09:59:09;94284.84;;;24.07;60.16
73600;BME280;61877;48.246;9.220;2022-08-20T10:01:36;94280.81;;;23.88;58.24
73600;BME280;61877;48.246;9.220;2022-08-20T10:04:01;94285.78;;;23.47;56.68
73600;BME280;61877;48.246;9.220;2022-08-20T10:06:27;94278.44;;;23.41;54.86
73600;BME280;61877;48.246;9.220;2022-08-20T10:08:52;94283.00;;;23.21;56.94
73600;BME280;61877;48.246;9.220;2022-08-20T10:11:17;94275.66;;;22.50;59.75
73600;BME280;61877;48.246;9.220;2022-08-20T10:13:43;94281.94;;;22.47;59.82
73600;BME280;61877;48.246;9.220;2022-08-20T10:16:08;94284.19;;;22.19;61.90
73600;BME280;61877;48.246;9.220;2022-08-20T10:18:35;94293.81;;;22.71;59.33
73600;BME280;61877;48.246;9.220;2022-08-20T10:21:01;94289.31;;;23.18;60.29
73600;BME280;61877;48.246;9.220;2022-08-20T10:23:26;94293.31;;;23.66;57.55
73600;BME280;61877;48.246;9.220;2022-08-20T10:25:52;94286.72;;;23.37;58.56
73600;BME280;61877;48.246;9.220;2022-08-20T10:28:17;94282.00;;;23.64;54.98
73600;BME280;61877;48.246;9.220;2022-08-20T10:30:42;94289.09;;;23.35;56.86
73600;BME280;61877;48.246;9.220;2022-08-20T10:33:08;94293.78;;;23.05;57.75
73600;BME280;61877;48.246;9.220;2022-08-20T10:35:34;94299.81;;;22.18;61.39
73600;BME280;61877;48.246;9.220;2022-08-20T10:38:00;94296.09;;;21.98;60.45
73600;BME280;61877;48.246;9.220;2022-08-20T10:40:25;94306.31;;;21.32;64.75
73600;BME280;61877;48.246;9.220;2022-08-20T10:42:51;94316.75;;;20.54;68.68
73600;BME280;61877;48.246;9.220;2022-08-20T10:45:16;94320.34;;;20.13;70.63
73600;BME280;61877;48.246;9.220;2022-08-20T10:47:42;94316.47;;;20.00;72.06
73600;BME280;61877;48.246;9.220;2022-08-20T10:50:10;94329.31;;;19.82;71.44
73600;BME280;61877;48.246;9.220;2022-08-20T10:52:38;94318.00;;;19.52;72.94
73600;BME280;61877;48.246;9.220;2022-08-20T10:55:04;94318.81;;;19.38;75.54
73600;BME280;61877;48.246;9.220;2022-08-20T10:57:31;94313.69;;;19.22;76.62
73600;BME280;61877;48.246;9.220;2022-08-20T10:59:57;94315.66;;;19.33;76.58
73600;BME280;61877;48.246;9.220;2022-08-20T11:02:24;94317.28;;;19.83;74.28
73600;BME280;61877;48.246;9.220;2022-08-20T11:04:51;94322.31;;;19.88;74.13
73600;BME280;61877;48.246;9.220;2022-08-20T11:07:18;94326.97;;;19.87;71.92
73600;BME280;61877;48.246;9.220;2022-08-20T11:09:47;94321.53;;;19.84;72.77
73600;BME280;61877;48.246;9.220;2022-08-20T11:12:13;94318.81;;;19.94;71.98
73600;BME280;61877;48.246;9.220;2022-08-20T11:14:39;94315.69;;;20.20;71.34
73600;BME280;61877;48.246;9.220;2022-08-20T11:17:05;94305.44;;;20.63;69.37
73600;BME280;61877;48.246;9.220;2022-08-20T11:19:31;94309.63;;;20.96;69.17
73600;BME280;61877;48.246;9.220;2022-08-20T11:21:56;94296.78;;;20.89;68.11
73600;BME280;61877;48.246;9.220;2022-08-20T11:24:22;94306.84;;;21.06;66.79
73600;BME280;61877;48.246;9.220;2022-08-20T11:26:49;94311.56;;;21.06;64.83
73600;BME280;61877;48.246;9.220;2022-08-20T11:29:15;94317.75;;;21.06;66.62
73600;BME280;61877;48.246;9.220;2022-08-20T11:31:40;94319.91;;;21.39;65.81
73600;BME280;61877;48.246;9.220;2022-08-20T11:34:06;94320.69;;;21.43;67.02
73600;BME280;61877;48.246;9.220;2022-08-20T11:36:31;94317.09;;;21.53;63.77
73600;BME280;61877;48.246;9.220;2022-08-20T11:38:57;94324.66;;;21.90;63.80
73600;BME280;61877;48.246;9.220;2022-08-20T11:41:22;94321.28;;;22.20;61.34
73600;BME280;61877;48.246;9.220;2022-08-20T11:43:49;94316.28;;;22.11;63.04
73600;BME280;61877;48.246;9.220;2022-08-20T11:46:14;94315.13;;;23.17;60.58
73600;BME280;61877;48.246;9.220;2022-08-20T11:48:40;94320.78;;;23.36;60.86
73600;BME280;61877;48.246;9.220;2022-08-20T11:51:06;94317.56;;;23.11;60.08
73600;BME280;61877;48.246;9.220;2022-08-20T11:53:31;94315.88;;;24.70;57.95
73600;BME280;61877;48.246;9.220;2022-08-20T11:55:56;94318.53;;;25.12;53.53
73600;BME280;61877;48.246;9.220;2022-08-20T11:58:22;94322.00;;;24.77;56.11
73600;BME280;61877;48.246;9.220;2022-08-20T12:00:49;94316.31;;;23.99;55.15
73600;BME280;61877;48.246;9.220;2022-08-20T12:03:14;94309.78;;;25.17;53.28
73600;BME280;61877;48.246;9.220;2022-08-20T12:05:42;94323.47;;;26.40;50.00
73600;BME280;61877;48.246;9.220;2022-08-20T12:08:08;94330.75;;;25.83;50.38
73600;BME280;61877;48.246;9.220;2022-08-20T12:10:36;94324.22;;;24.82;52.58
73600;BME280;61877;48.246;9.220;2022-08-20T12:13:04;94320.16;;;25.10;51.31
73600;BME280;61877;48.246;9.220;2022-08-20T12:15:29;94327.28;;;24.45;53.32
73600;BME280;61877;48.246;9.220;2022-08-20T12:17:57;94325.28;;;23.73;56.77
73600;BME280;61877;48.246;9.220;2022-08-20T12:20:24;94334.06;;;23.04;58.96
73600;BME280;61877;48.246;9.220;2022-08-20T12:22:50;94333.78;;;21.62;63.26
73600;BME280;61877;48.246;9.220;2022-08-20T12:25:15;94331.91;;;20.73;65.05
73600;BME280;61877;48.246;9.220;2022-08-20T12:27:41;94341.38;;;20.23;69.70
73600;BME280;61877;48.246;9.220;2022-08-20T12:30:09;94339.41;;;19.85;73.77
73600;BME280;61877;48.246;9.220;2022-08-20T12:32:35;94344.44;;;19.37;75.73
73600;BME280;61877;48.246;9.220;2022-08-20T12:35:03;94340.06;;;19.04;78.45
73600;BME280;61877;48.246;9.220;2022-08-20T12:37:30;94339.63;;;18.88;79.92
73600;BME280;61877;48.246;9.220;2022-08-20T12:39:58;94330.22;;;18.68;81.14
73600;BME280;61877;48.246;9.220;2022-08-20T12:42:24;94332.97;;;18.82;81.66
73600;BME280;61877;48.246;9.220;2022-08-20T12:44:50;94339.56;;;18.78;79.59
73600;BME280;61877;48.246;9.220;2022-08-20T12:47:18;94337.69;;;18.92;81.31
73600;BME280;61877;48.246;9.220;2022-08-20T12:49:46;94329.66;;;19.31;80.99
73600;BME280;61877;48.246;9.220;2022-08-20T12:52:14;94338.25;;;19.79;81.02
73600;BME280;61877;48.246;9.220;2022-08-20T12:54:41;94333.59;;;20.00;77.42
73600;BME280;61877;48.246;9.220;2022-08-20T12:57:10;94333.16;;;20.40;78.00